Time;durP1;ratioP1;P1;durP2;ratioP2;P2;SDS_P1;SDS_P2;PMS_P1;PMS_P2;Temp;Humidity;BMP_temperature;BMP_pressure;BME280_temperature;BME280_humidity;BME280_pressure;Samples;Min_cycle;Max_cycle;Signal;HPM_P1;HPM_P2
2022/05/09 00:00:13;;;;;;;;;;;16.30;90.00;;;;;;4349255;32;42991;-75
2022/05/09 00:02:40;;;;;;;;;;;16.30;90.10;;;;;;4362537;32;43485;-76
2022/05/09 00:05:08;;;;;;;;;;;16.30;90.10;;;;;;4349037;32;45803;-76
2022/05/09 00:07:35;;;;;;;;;;;16.30;90.20;;;;;;4349500;32;45056;-76
2022/05/09 00:10:03;;;;;;;;;;;16.30;90.10;;;;;;4362512;32;44200;-76
2022/05/09 00:12:32;;;;;;;;;;;16.20;90.00;;;;;;4349135;32;43176;-76
2022/05/09 00:14:59;;;;;;;;;;;16.20;90.10;;;;;;4348894;32;43783;-75
2022/05/09 00:17:26;;;;;;;;;;;16.20;90.10;;;;;;4362279;32;43167;-75
2022/05/09 00:19:53;;;;;;;;;;;16.20;90.10;;;;;;4362279;32;44778;-75
2022/05/09 00:22:20;;;;;;;;;;;16.20;90.10;;;;;;4349449;32;43018;-75
2022/05/09 00:24:47;;;;;;;;;;;16.20;90.00;;;;;;4349353;32;44653;-75
2022/05/09 00:27:14;;;;;;;;;;;16.20;90.20;;;;;;4362343;32;45717;-76
2022/05/09 00:29:41;;;;;;;;;;;16.20;90.10;;;;;;4362541;32;43192;-75
2022/05/09 00:32:09;;;;;;;;;;;16.10;89.80;;;;;;4362231;32;44890;-76
2022/05/09 00:34:37;;;;;;;;;;;16.10;89.60;;;;;;4348792;32;42561;-75
2022/05/09 00:37:04;;;;;;;;;;;16.00;89.80;;;;;;4362077;32;44211;-75
2022/05/09 00:39:33;;;;;;;;;;;16.00;90.10;;;;;;4362021;32;42152;-75
2022/05/09 00:42:11;;;;;;;;;;;16.00;90.00;;;;;;4362462;32;43689;-75
2022/05/09 00:44:38;;;;;;;;;;;16.00;90.10;;;;;;4362477;32;43634;-75
2022/05/09 00:47:05;;;;;;;;;;;16.00;90.10;;;;;;4361877;32;42491;-75
2022/05/09 00:49:34;;;;;;;;;;;16.00;90.20;;;;;;4362103;32;43737;-76
2022/05/09 00:52:05;;;;;;;;;;;16.00;89.90;;;;;;4348656;32;43308;-75
2022/05/09 00:54:58;;;;;;;;;;;16.00;90.20;;;;;;4361813;32;43026;-75
2022/05/09 00:57:43;;;;;;;;;;;15.90;89.80;;;;;;4359704;32;43910;-75
2022/05/09 01:00:13;;;;;;;;;;;15.90;90.10;;;;;;4361202;32;42971;-75
2022/05/09 01:02:45;;;;;;;;;;;15.90;89.80;;;;;;4348101;32;43171;-75
2022/05/09 01:05:13;;;;;;;;;;;15.80;89.90;;;;;;4362257;32;43683;-75
2022/05/09 01:07:40;;;;;;;;;;;15.80;89.90;;;;;;4348154;32;42256;-75
2022/05/09 01:10:11;;;;;;;;;;;15.80;89.90;;;;;;4361661;32;43117;-75
2022/05/09 01:12:42;;;;;;;;;;;15.80;90.00;;;;;;4361582;32;42159;-75
2022/05/09 01:15:12;;;;;;;;;;;15.80;90.20;;;;;;4362132;32;44222;-75
2022/05/09 01:17:39;;;;;;;;;;;15.80;90.00;;;;;;4362037;32;43486;-75
2022/05/09 01:20:08;;;;;;;;;;;15.80;90.10;;;;;;4361521;32;44575;-75
2022/05/09 01:22:36;;;;;;;;;;;15.70;90.20;;;;;;4361895;32;43822;-75
2022/05/09 01:25:08;;;;;;;;;;;15.70;90.20;;;;;;4361287;32;43761;-75
2022/05/09 01:27:36;;;;;;;;;;;15.70;90.00;;;;;;4361426;32;43584;-75
2022/05/09 01:30:19;;;;;;;;;;;15.70;90.00;;;;;;4361876;32;43042;-75
2022/05/09 01:32:52;;;;;;;;;;;15.70;90.00;;;;;;4361751;32;43880;-75
2022/05/09 01:35:22;;;;;;;;;;;15.70;90.00;;;;;;4348380;32;43195;-75
2022/05/09 01:38:02;;;;;;;;;;;15.70;90.10;;;;;;4347863;32;44786;-75
2022/05/09 01:40:29;;;;;;;;;;;15.70;90.10;;;;;;4361762;32;43673;-75
2022/05/09 01:42:56;;;;;;;;;;;15.60;90.10;;;;;;4361595;32;43021;-76
2022/05/09 01:45:23;;;;;;;;;;;15.60;90.20;;;;;;4347842;32;44265;-76
2022/05/09 01:50:36;;;;;;;;;;;15.60;90.20;;;;;;4362326;32;20001;-75
2022/05/09 01:53:05;;;;;;;;;;;15.60;90.30;;;;;;4347973;32;44180;-75
2022/05/09 01:55:33;;;;;;;;;;;15.60;90.30;;;;;;4347459;32;44079;-75
2022/05/09 01:58:00;;;;;;;;;;;15.60;90.30;;;;;;4360977;32;43633;-76
2022/05/09 02:00:28;;;;;;;;;;;15.50;90.40;;;;;;4347640;32;42602;-75
2022/05/09 02:02:55;;;;;;;;;;;15.50;90.40;;;;;;4347376;32;44017;-76
2022/05/09 02:05:23;;;;;;;;;;;15.50;90.20;;;;;;4347771;32;42136;-76
2022/05/09 02:07:50;;;;;;;;;;;15.50;90.30;;;;;;4360718;32;44616;-75
2022/05/09 02:10:17;;;;;;;;;;;15.50;90.20;;;;;;4360138;32;43470;-75
2022/05/09 02:12:44;;;;;;;;;;;15.40;90.30;;;;;;4361077;32;43081;-75
2022/05/09 02:15:14;;;;;;;;;;;15.40;90.40;;;;;;4347438;32;42518;-75
2022/05/09 02:17:41;;;;;;;;;;;15.40;90.40;;;;;;4347488;32;42873;-75
2022/05/09 02:20:09;;;;;;;;;;;15.40;90.50;;;;;;4347312;32;42649;-75
2022/05/09 02:22:36;;;;;;;;;;;15.40;90.60;;;;;;4360874;32;44692;-75
2022/05/09 02:25:26;;;;;;;;;;;15.40;90.30;;;;;;4360898;32;43868;-76
2022/05/09 02:27:50;;;;;;;;;;;15.30;90.40;;;;;;4360810;32;42954;-75
2022/05/09 02:30:20;;;;;;;;;;;15.30;90.40;;;;;;4360442;32;43675;-75
2022/05/09 02:32:47;;;;;;;;;;;15.40;90.50;;;;;;4347040;32;43659;-75
2022/05/09 02:35:15;;;;;;;;;;;15.30;90.50;;;;;;4347132;32;44030;-76
2022/05/09 02:37:42;;;;;;;;;;;15.30;90.40;;;;;;4347491;32;44215;-75
2022/05/09 02:40:09;;;;;;;;;;;15.30;90.40;;;;;;4360362;32;43190;-75
2022/05/09 02:42:37;;;;;;;;;;;15.30;90.60;;;;;;4347126;32;43647;-75
2022/05/09 02:45:04;;;;;;;;;;;15.20;90.50;;;;;;4346879;32;43479;-75
2022/05/09 02:47:31;;;;;;;;;;;15.20;90.60;;;;;;4360622;32;42917;-75
2022/05/09 02:49:59;;;;;;;;;;;15.30;90.70;;;;;;4347241;32;42855;-76
2022/05/09 02:52:26;;;;;;;;;;;15.20;90.70;;;;;;4360358;32;42918;-75
2022/05/09 02:54:53;;;;;;;;;;;15.20;90.60;;;;;;4347094;32;43827;-76
2022/05/09 02:57:22;;;;;;;;;;;15.10;90.30;;;;;;4347151;32;43585;-76
2022/05/09 02:59:49;;;;;;;;;;;15.10;90.50;;;;;;4346798;32;44350;-75
2022/05/09 03:02:16;;;;;;;;;;;15.10;90.60;;;;;;4359846;32;43110;-75
2022/05/09 03:04:45;;;;;;;;;;;15.10;90.40;;;;;;4359999;32;44191;-76
2022/05/09 03:07:13;;;;;;;;;;;15.00;90.40;;;;;;4360052;32;43609;-75
2022/05/09 03:09:41;;;;;;;;;;;15.00;90.40;;;;;;4359996;32;43689;-75
2022/05/09 03:12:09;;;;;;;;;;;15.00;90.50;;;;;;4346591;32;42756;-76
2022/05/09 03:14:37;;;;;;;;;;;14.90;90.40;;;;;;4360463;32;43055;-76
2022/05/09 03:17:04;;;;;;;;;;;14.90;90.60;;;;;;4359820;32;42483;-76
2022/05/09 03:19:32;;;;;;;;;;;14.90;90.80;;;;;;4359830;32;42578;-76
2022/05/09 03:21:59;;;;;;;;;;;14.90;90.80;;;;;;4346835;32;43252;-75
2022/05/09 03:24:26;;;;;;;;;;;14.90;90.80;;;;;;4360343;32;43761;-75
2022/05/09 03:26:54;;;;;;;;;;;14.90;90.80;;;;;;4360002;32;45121;-75
2022/05/09 03:29:24;;;;;;;;;;;14.90;90.90;;;;;;4346322;32;42852;-76
2022/05/09 03:31:52;;;;;;;;;;;14.90;90.80;;;;;;4346290;32;44217;-76
2022/05/09 03:34:20;;;;;;;;;;;14.80;90.80;;;;;;4359657;32;43323;-76
2022/05/09 03:36:47;;;;;;;;;;;14.90;90.90;;;;;;4359678;32;42618;-76
2022/05/09 03:39:14;;;;;;;;;;;14.80;90.70;;;;;;4346900;32;44125;-76
2022/05/09 03:41:41;;;;;;;;;;;14.80;90.90;;;;;;4359942;32;43694;-76
2022/05/09 03:44:09;;;;;;;;;;;14.80;91.00;;;;;;4360032;33;41743;-76
2022/05/09 03:46:37;;;;;;;;;;;14.80;91.00;;;;;;4359631;33;42597;-78
2022/05/09 03:49:04;;;;;;;;;;;14.80;91.10;;;;;;4346776;33;43695;-76
2022/05/09 03:51:32;;;;;;;;;;;14.80;91.00;;;;;;4360480;33;20052;-75
2022/05/09 03:54:01;;;;;;;;;;;14.80;91.10;;;;;;4346948;33;44207;-76
2022/05/09 03:56:28;;;;;;;;;;;14.80;91.10;;;;;;4346212;33;44239;-76
2022/05/09 03:58:56;;;;;;;;;;;14.80;91.00;;;;;;4359975;33;43734;-76
2022/05/09 04:01:23;;;;;;;;;;;14.70;91.10;;;;;;4346042;33;43711;-76
2022/05/09 04:03:50;;;;;;;;;;;14.70;91.00;;;;;;4346540;33;42369;-76
2022/05/09 04:06:17;;;;;;;;;;;14.70;91.00;;;;;;4359698;33;42442;-76
2022/05/09 04:08:44;;;;;;;;;;;14.70;91.20;;;;;;4359858;33;45392;-76
2022/05/09 04:11:11;;;;;;;;;;;14.70;91.20;;;;;;4346541;33;45854;-77
2022/05/09 04:13:38;;;;;;;;;;;14.70;91.20;;;;;;4346463;33;44202;-76
2022/05/09 04:16:51;;;;;;;;;;;14.60;91.40;;;;;;4359354;33;42964;-76
2022/05/09 04:18:59;;;;;;;;;;;14.60;91.10;;;;;;4350419;33;42749;-75
2022/05/09 04:21:26;;;;;;;;;;;14.60;91.30;;;;;;4346382;33;43454;-75
2022/05/09 04:23:56;;;;;;;;;;;14.60;91.30;;;;;;4359892;33;43019;-75
2022/05/09 04:26:23;;;;;;;;;;;14.60;91.10;;;;;;4359322;33;43698;-76
2022/05/09 04:28:50;;;;;;;;;;;14.50;90.90;;;;;;4359684;33;44794;-75
2022/05/09 04:31:19;;;;;;;;;;;14.50;91.00;;;;;;4360076;33;43152;-76
2022/05/09 04:33:47;;;;;;;;;;;14.40;91.20;;;;;;4346697;32;43639;-75
2022/05/09 04:36:14;;;;;;;;;;;14.50;91.40;;;;;;4362397;32;42143;-76
2022/05/09 04:38:43;;;;;;;;;;;14.50;91.30;;;;;;4362111;32;43660;-76
2022/05/09 04:41:12;;;;;;;;;;;14.50;91.30;;;;;;4348565;32;45477;-75
2022/05/09 04:43:42;;;;;;;;;;;14.50;91.50;;;;;;4349501;32;43223;-75
2022/05/09 04:46:10;;;;;;;;;;;14.50;91.50;;;;;;4362130;32;46180;-75
2022/05/09 04:48:38;;;;;;;;;;;14.50;91.60;;;;;;4349023;32;43165;-75
2022/05/09 04:51:05;;;;;;;;;;;14.50;91.60;;;;;;4348899;32;43547;-75
2022/05/09 04:53:35;;;;;;;;;;;14.40;91.50;;;;;;4362247;32;43954;-75
2022/05/09 04:56:05;;;;;;;;;;;14.40;91.60;;;;;;4349111;32;43493;-75
2022/05/09 04:58:35;;;;;;;;;;;14.40;92.00;;;;;;4361709;32;43531;-75
2022/05/09 05:01:02;;;;;;;;;;;14.40;91.70;;;;;;4348955;32;43275;-76
2022/05/09 05:03:29;;;;;;;;;;;14.50;91.80;;;;;;4345824;33;42878;-75
2022/05/09 05:05:59;;;;;;;;;;;14.40;91.90;;;;;;4346234;33;44246;-75
2022/05/09 05:08:30;;;;;;;;;;;14.40;91.90;;;;;;4345684;33;44716;-75
2022/05/09 05:10:57;;;;;;;;;;;14.40;92.00;;;;;;4347282;33;43741;-75
2022/05/09 05:13:25;;;;;;;;;;;14.40;92.00;;;;;;4347249;33;43854;-75
2022/05/09 05:15:52;;;;;;;;;;;14.40;92.00;;;;;;4346708;33;44750;-75
2022/05/09 05:18:20;;;;;;;;;;;14.40;92.10;;;;;;4347139;33;43055;-76
2022/05/09 05:20:47;;;;;;;;;;;14.40;92.20;;;;;;4346728;33;42893;-75
2022/05/09 05:23:18;;;;;;;;;;;14.40;92.20;;;;;;4345930;33;43914;-75
2022/05/09 05:25:45;;;;;;;;;;;14.40;92.00;;;;;;4346613;33;43313;-76
2022/05/09 05:28:16;;;;;;;;;;;14.30;92.10;;;;;;4345834;33;42182;-75
2022/05/09 05:30:44;;;;;;;;;;;14.30;92.10;;;;;;4346956;32;43938;-75
2022/05/09 05:33:11;;;;;;;;;;;14.30;92.20;;;;;;4346465;33;42838;-75
2022/05/09 05:35:38;;;;;;;;;;;14.30;92.30;;;;;;4346945;33;44187;-75
2022/05/09 05:38:08;;;;;;;;;;;14.30;92.20;;;;;;4346333;33;42559;-75
2022/05/09 05:40:35;;;;;;;;;;;14.30;92.20;;;;;;4345240;33;42537;-75
2022/05/09 05:43:05;;;;;;;;;;;14.20;92.30;;;;;;4346405;33;42415;-75
2022/05/09 05:45:32;;;;;;;;;;;14.20;92.40;;;;;;4346102;33;42454;-75
2022/05/09 05:47:59;;;;;;;;;;;14.20;92.50;;;;;;4345212;33;43883;-75
2022/05/09 05:50:26;;;;;;;;;;;14.20;92.30;;;;;;4346302;32;45968;-75
2022/05/09 05:52:53;;;;;;;;;;;14.20;92.40;;;;;;4346217;33;19998;-75
2022/05/09 05:55:20;;;;;;;;;;;14.20;92.40;;;;;;4346148;33;43014;-75
2022/05/09 05:57:51;;;;;;;;;;;14.20;92.50;;;;;;4345381;33;44191;-75
2022/05/09 06:00:21;;;;;;;;;;;14.20;92.70;;;;;;4345976;32;44836;-75
2022/05/09 06:02:50;;;;;;;;;;;14.20;92.90;;;;;;4344818;33;43779;-75
2022/05/09 06:05:18;;;;;;;;;;;14.20;93.00;;;;;;4345102;33;43011;-75
2022/05/09 06:07:47;;;;;;;;;;;14.30;93.10;;;;;;4345945;33;43455;-75
2022/05/09 06:10:15;;;;;;;;;;;14.20;93.10;;;;;;4346426;33;42999;-76
2022/05/09 06:12:45;;;;;;;;;;;14.30;93.00;;;;;;4344917;33;42954;-76
2022/05/09 06:15:25;;;;;;;;;;;14.30;93.00;;;;;;4344929;33;42671;-75
2022/05/09 06:17:53;;;;;;;;;;;14.30;93.20;;;;;;4346371;32;45756;-75
2022/05/09 06:20:20;;;;;;;;;;;14.30;93.40;;;;;;4345196;33;43015;-75
2022/05/09 06:22:48;;;;;;;;;;;14.30;93.50;;;;;;4346258;33;43965;-76
2022/05/09 06:25:16;;;;;;;;;;;14.40;93.80;;;;;;4346106;33;43426;-76
2022/05/09 06:27:44;;;;;;;;;;;14.30;93.90;;;;;;4345716;33;43194;-75
2022/05/09 06:30:12;;;;;;;;;;;14.40;93.90;;;;;;4345696;33;43640;-75
2022/05/09 06:32:39;;;;;;;;;;;14.40;94.00;;;;;;4345774;33;43204;-76
2022/05/09 06:35:07;;;;;;;;;;;14.40;94.00;;;;;;4345664;33;41883;-76
2022/05/09 06:37:38;;;;;;;;;;;14.40;94.10;;;;;;4346136;33;43649;-76
2022/05/09 06:40:09;;;;;;;;;;;14.40;94.10;;;;;;4345457;33;46102;-76
2022/05/09 06:42:37;;;;;;;;;;;14.40;94.10;;;;;;4345971;33;44700;-75
2022/05/09 06:45:05;;;;;;;;;;;14.40;94.20;;;;;;4344674;33;43704;-75
2022/05/09 06:47:32;;;;;;;;;;;14.50;94.30;;;;;;4345358;33;44865;-75
2022/05/09 06:50:03;;;;;;;;;;;14.40;94.30;;;;;;4344771;33;44811;-75
2022/05/09 06:52:36;;;;;;;;;;;14.40;94.30;;;;;;4344799;33;43694;-75
2022/05/09 06:55:06;;;;;;;;;;;14.50;94.40;;;;;;4344343;33;43796;-75
2022/05/09 06:57:36;;;;;;;;;;;14.50;94.50;;;;;;4343931;33;44826;-76
2022/05/09 07:00:06;;;;;;;;;;;14.50;94.50;;;;;;4345747;33;44289;-75
2022/05/09 07:02:33;;;;;;;;;;;14.60;94.70;;;;;;4353968;32;44107;-76
2022/05/09 07:05:05;;;;;;;;;;;14.60;95.10;;;;;;4347177;32;44711;-76
2022/05/09 07:07:32;;;;;;;;;;;14.60;95.20;;;;;;4360376;32;45769;-75
2022/05/09 07:10:03;;;;;;;;;;;14.60;95.20;;;;;;4360356;32;44022;-76
2022/05/09 07:12:31;;;;;;;;;;;14.60;95.10;;;;;;4360267;32;43964;-75
2022/05/09 07:14:58;;;;;;;;;;;14.60;95.10;;;;;;4346533;32;43875;-75
2022/05/09 07:17:25;;;;;;;;;;;14.60;95.30;;;;;;4347068;32;43479;-75
2022/05/09 07:19:58;;;;;;;;;;;14.70;95.30;;;;;;4360211;32;45768;-75
2022/05/09 07:22:25;;;;;;;;;;;14.70;95.60;;;;;;4359779;32;42892;-76
2022/05/09 07:24:58;;;;;;;;;;;14.70;95.70;;;;;;4347287;32;43026;-76
2022/05/09 07:27:26;;;;;;;;;;;14.70;95.70;;;;;;4359772;32;43597;-76
2022/05/09 07:29:53;;;;;;;;;;;14.70;95.90;;;;;;4346755;32;43932;-76
2022/05/09 07:32:23;;;;;;;;;;;14.70;95.50;;;;;;4360190;32;43040;-76
2022/05/09 07:34:53;;;;;;;;;;;14.80;95.60;;;;;;4346717;32;42862;-76
2022/05/09 07:37:21;;;;;;;;;;;14.80;95.70;;;;;;4346446;32;43473;-75
2022/05/09 07:39:48;;;;;;;;;;;14.80;95.50;;;;;;4346838;32;43866;-75
2022/05/09 07:42:15;;;;;;;;;;;14.90;95.60;;;;;;4346862;33;43071;-75
2022/05/09 07:44:42;;;;;;;;;;;14.80;95.60;;;;;;4346727;33;43730;-76
2022/05/09 07:47:12;;;;;;;;;;;14.90;95.40;;;;;;4346299;33;42670;-76
2022/05/09 07:49:40;;;;;;;;;;;14.90;95.40;;;;;;4346198;33;44363;-76
2022/05/09 07:52:12;;;;;;;;;;;14.90;95.20;;;;;;4360091;33;42759;-76
2022/05/09 07:54:40;;;;;;;;;;;14.90;95.10;;;;;;4346586;33;43004;-77
2022/05/09 07:57:07;;;;;;;;;;;14.90;95.10;;;;;;4359532;33;43993;-76
2022/05/09 07:59:36;;;;;;;;;;;14.90;95.10;;;;;;4359475;33;43608;-76
2022/05/09 08:02:04;;;;;;;;;;;15.00;95.10;;;;;;4346338;33;42676;-76
2022/05/09 08:04:34;;;;;;;;;;;15.00;95.10;;;;;;4359484;33;43033;-76
2022/05/09 08:07:04;;;;;;;;;;;15.00;95.20;;;;;;4346225;33;43470;-76
2022/05/09 08:09:34;;;;;;;;;;;15.00;95.30;;;;;;4361049;32;45703;-76
2022/05/09 08:12:05;;;;;;;;;;;15.10;95.20;;;;;;4348989;32;44219;-77
2022/05/09 08:14:32;;;;;;;;;;;15.10;95.20;;;;;;4349086;32;44396;-76
2022/05/09 08:17:00;;;;;;;;;;;15.10;95.50;;;;;;4362737;32;45079;-75
2022/05/09 08:19:29;;;;;;;;;;;15.10;95.60;;;;;;4362505;32;42733;-75
2022/05/09 08:21:56;;;;;;;;;;;15.10;95.50;;;;;;4362673;32;42577;-75
2022/05/09 08:24:31;;;;;;;;;;;15.20;95.50;;;;;;4349946;32;20005;-75
2022/05/09 08:26:58;;;;;;;;;;;15.20;95.50;;;;;;4349473;32;42978;-76
2022/05/09 08:29:29;;;;;;;;;;;15.20;95.50;;;;;;4349304;32;44353;-75
2022/05/09 08:31:56;;;;;;;;;;;15.20;95.60;;;;;;4349423;32;46008;-75
2022/05/09 08:34:23;;;;;;;;;;;15.20;95.60;;;;;;4362018;32;44487;-76
2022/05/09 08:36:55;;;;;;;;;;;15.20;95.60;;;;;;4362575;32;44266;-76
2022/05/09 08:39:26;;;;;;;;;;;15.20;95.60;;;;;;4348834;32;42954;-75
2022/05/09 08:41:56;;;;;;;;;;;15.30;95.70;;;;;;4349650;32;43169;-75
2022/05/09 08:44:29;;;;;;;;;;;15.30;95.80;;;;;;4348611;32;42839;-75
2022/05/09 08:47:08;;;;;;;;;;;15.30;95.90;;;;;;4361934;32;43001;-75
2022/05/09 08:49:50;;;;;;;;;;;15.30;95.80;;;;;;4361637;32;43415;-75
2022/05/09 08:52:26;;;;;;;;;;;15.30;95.80;;;;;;4362059;32;42475;-75
2022/05/09 08:54:54;;;;;;;;;;;15.30;95.80;;;;;;4362661;32;20414;-75
2022/05/09 08:57:26;;;;;;;;;;;15.30;96.00;;;;;;4362090;32;44365;-75
2022/05/09 09:00:00;;;;;;;;;;;15.30;96.00;;;;;;4348885;32;43195;-76
2022/05/09 09:02:32;;;;;;;;;;;15.40;96.00;;;;;;4348451;32;43783;-75
2022/05/09 09:05:03;;;;;;;;;;;15.40;96.10;;;;;;4362307;32;43911;-75
2022/05/09 09:07:59;;;;;;;;;;;15.40;96.20;;;;;;4349044;32;45729;-75
2022/05/09 09:10:39;;;;;;;;;;;15.40;96.00;;;;;;4362080;32;42999;-76
2022/05/09 09:13:23;;;;;;;;;;;15.40;96.20;;;;;;4362359;32;43889;-75
2022/05/09 09:16:00;;;;;;;;;;;15.50;96.40;;;;;;4348909;32;43470;-75
2022/05/09 09:18:30;;;;;;;;;;;15.50;96.40;;;;;;4361664;32;43687;-74
2022/05/09 09:21:01;;;;;;;;;;;15.50;96.20;;;;;;4361572;32;42626;-74
2022/05/09 09:23:44;;;;;;;;;;;15.50;96.30;;;;;;4348604;32;45674;-74
2022/05/09 09:26:28;;;;;;;;;;;15.50;96.20;;;;;;4362695;32;20001;-74
2022/05/09 09:29:03;;;;;;;;;;;15.50;96.20;;;;;;4348605;32;45744;-74
2022/05/09 09:31:35;;;;;;;;;;;15.50;96.30;;;;;;4348341;32;43502;-74
2022/05/09 09:34:09;;;;;;;;;;;15.60;96.50;;;;;;4348578;32;45646;-74
2022/05/09 09:36:43;;;;;;;;;;;15.60;96.60;;;;;;4348498;32;44637;-74
2022/05/09 09:39:13;;;;;;;;;;;15.60;96.60;;;;;;4348350;32;43840;-75
2022/05/09 09:41:43;;;;;;;;;;;15.60;96.70;;;;;;4361794;32;44393;-74
2022/05/09 09:44:13;;;;;;;;;;;15.60;96.70;;;;;;4347789;32;43341;-75
2022/05/09 09:46:59;;;;;;;;;;;15.60;96.70;;;;;;4361232;32;44148;-74
2022/05/09 09:49:26;;;;;;;;;;;15.70;96.90;;;;;;4348013;32;43243;-74
2022/05/09 09:51:54;;;;;;;;;;;15.70;97.00;;;;;;4361241;32;44819;-74
2022/05/09 09:54:22;;;;;;;;;;;15.70;97.00;;;;;;4347951;32;44056;-75
2022/05/09 09:56:50;;;;;;;;;;;15.70;97.10;;;;;;4361992;32;20043;-74
2022/05/09 09:59:20;;;;;;;;;;;15.70;97.20;;;;;;4361161;32;43216;-75
2022/05/09 10:02:08;;;;;;;;;;;15.70;97.20;;;;;;4361138;32;45243;-75
2022/05/09 10:04:36;;;;;;;;;;;15.80;97.40;;;;;;4361520;32;43691;-74
2022/05/09 10:07:12;;;;;;;;;;;15.80;97.50;;;;;;4360862;32;42181;-74
2022/05/09 10:09:42;;;;;;;;;;;15.90;97.60;;;;;;4335825;32;43533;-74
2022/05/09 10:12:30;;;;;;;;;;;15.90;97.50;;;;;;4360908;32;45449;-74
2022/05/09 10:14:57;;;;;;;;;;;15.90;97.50;;;;;;4347747;32;42732;-74
2022/05/09 10:17:25;;;;;;;;;;;15.90;97.50;;;;;;4360727;32;44082;-74
2022/05/09 10:19:53;;;;;;;;;;;15.90;97.60;;;;;;4360825;32;42574;-74
2022/05/09 10:25:20;;;;;;;;;;;16.00;98.10;;;;;;4361211;32;43984;-74
2022/05/09 10:28:03;;;;;;;;;;;16.00;98.00;;;;;;4360841;32;43796;-76
2022/05/09 10:30:37;;;;;;;;;;;16.00;97.90;;;;;;4347862;32;43594;-75
2022/05/09 10:33:14;;;;;;;;;;;16.10;97.80;;;;;;4347166;32;43174;-74
2022/05/09 10:35:48;;;;;;;;;;;16.10;98.00;;;;;;4347613;32;43563;-74
2022/05/09 10:38:40;;;;;;;;;;;16.10;98.10;;;;;;4347381;32;43210;-75
2022/05/09 10:41:26;;;;;;;;;;;16.20;98.20;;;;;;4360377;32;42900;-75
2022/05/09 10:44:04;;;;;;;;;;;16.20;98.40;;;;;;4346825;32;45397;-75
2022/05/09 10:47:01;;;;;;;;;;;16.20;98.40;;;;;;4360713;32;44091;-75
2022/05/09 10:49:29;;;;;;;;;;;16.20;98.50;;;;;;4332046;32;43932;-74
2022/05/09 10:52:06;;;;;;;;;;;16.20;98.40;;;;;;4346863;32;43343;-74
2022/05/09 10:54:43;;;;;;;;;;;16.30;98.30;;;;;;4346961;32;42851;-74
2022/05/09 10:57:17;;;;;;;;;;;16.30;98.30;;;;;;4360455;32;44074;-74
2022/05/09 11:00:12;;;;;;;;;;;16.30;98.30;;;;;;4360617;32;45208;-74
2022/05/09 11:02:45;;;;;;;;;;;16.30;98.30;;;;;;4346866;32;43942;-74
2022/05/09 11:05:15;;;;;;;;;;;16.40;98.30;;;;;;4347139;32;42953;-75
2022/05/09 11:07:52;;;;;;;;;;;16.40;98.40;;;;;;4347192;32;43206;-75
2022/05/09 11:10:26;;;;;;;;;;;16.40;98.30;;;;;;4360466;32;44326;-74
2022/05/09 11:13:08;;;;;;;;;;;16.40;98.50;;;;;;4346923;32;42942;-74
2022/05/09 11:15:50;;;;;;;;;;;16.40;98.40;;;;;;4360325;32;42699;-74
2022/05/09 11:18:36;;;;;;;;;;;16.50;98.40;;;;;;4359900;32;42995;-74
2022/05/09 11:21:12;;;;;;;;;;;16.50;98.40;;;;;;4360010;32;43702;-74
2022/05/09 11:23:53;;;;;;;;;;;16.50;98.40;;;;;;4346622;32;42332;-74
2022/05/09 11:26:27;;;;;;;;;;;16.60;98.40;;;;;;4359782;32;42876;-74
2022/05/09 11:29:04;;;;;;;;;;;16.60;98.60;;;;;;4347571;32;20048;-74
2022/05/09 11:31:37;;;;;;;;;;;16.60;98.60;;;;;;4359689;32;42106;-75
2022/05/09 11:34:24;;;;;;;;;;;16.60;98.50;;;;;;4346912;32;41874;-73
2022/05/09 11:37:04;;;;;;;;;;;16.70;98.70;;;;;;4360217;32;42537;-74
2022/05/09 11:39:41;;;;;;;;;;;16.70;98.70;;;;;;4359770;32;42008;-73
2022/05/09 11:45:24;;;;;;;;;;;16.80;98.60;;;;;;4359506;32;42990;-74
2022/05/09 11:48:03;;;;;;;;;;;16.80;98.70;;;;;;4359708;33;42988;-74
2022/05/09 11:50:49;;;;;;;;;;;16.80;98.30;;;;;;4359960;33;43798;-74
2022/05/09 11:53:17;;;;;;;;;;;16.80;98.40;;;;;;4346616;33;44262;-74
2022/05/09 11:55:47;;;;;;;;;;;16.80;98.50;;;;;;4359962;33;43872;-74
2022/05/09 11:58:17;;;;;;;;;;;16.90;98.60;;;;;;4346149;33;42882;-74
2022/05/09 12:00:47;;;;;;;;;;;16.90;98.70;;;;;;4346485;33;44195;-75
2022/05/09 12:03:34;;;;;;;;;;;16.90;98.80;;;;;;4343944;33;44918;-74
2022/05/09 12:06:05;;;;;;;;;;;17.00;98.90;;;;;;4345058;33;43538;-75
2022/05/09 12:08:41;;;;;;;;;;;17.00;98.90;;;;;;4344615;33;43639;-74
2022/05/09 12:11:15;;;;;;;;;;;17.00;98.70;;;;;;4344551;33;43033;-74
2022/05/09 12:13:42;;;;;;;;;;;17.10;98.90;;;;;;4344032;33;43759;-74
2022/05/09 12:16:13;;;;;;;;;;;17.10;98.80;;;;;;4343818;33;42548;-74
2022/05/09 12:18:45;;;;;;;;;;;17.10;98.60;;;;;;4343981;33;44073;-74
2022/05/09 12:21:14;;;;;;;;;;;17.20;98.60;;;;;;4344038;33;44724;-74
2022/05/09 12:23:41;;;;;;;;;;;17.20;98.50;;;;;;4343752;33;43470;-74
2022/05/09 12:26:25;;;;;;;;;;;17.20;98.50;;;;;;4343496;33;43927;-74
2022/05/09 12:29:08;;;;;;;;;;;17.30;98.50;;;;;;4345058;33;43534;-75
2022/05/09 12:31:35;;;;;;;;;;;17.30;98.40;;;;;;4345356;33;20760;-75
2022/05/09 12:34:03;;;;;;;;;;;17.30;98.50;;;;;;4343407;33;42424;-74
2022/05/09 12:36:32;;;;;;;;;;;17.30;98.60;;;;;;4343656;33;43828;-74
2022/05/09 12:39:01;;;;;;;;;;;17.40;98.40;;;;;;4344490;33;42770;-74
2022/05/09 12:41:42;;;;;;;;;;;17.40;98.30;;;;;;4343749;33;43639;-75
2022/05/09 12:44:13;;;;;;;;;;;17.50;98.10;;;;;;4345058;33;43869;-75
2022/05/09 12:46:45;;;;;;;;;;;17.50;98.50;;;;;;4345114;33;44431;-75
2022/05/09 12:49:19;;;;;;;;;;;17.60;98.50;;;;;;4344755;33;43942;-74
2022/05/09 12:51:49;;;;;;;;;;;17.60;98.60;;;;;;4343666;33;45853;-75
2022/05/09 12:54:18;;;;;;;;;;;17.60;98.60;;;;;;4344242;33;44239;-75
2022/05/09 12:56:52;;;;;;;;;;;17.60;98.50;;;;;;4346002;33;43048;-75
2022/05/09 12:59:21;;;;;;;;;;;17.70;98.40;;;;;;4346486;33;45761;-75
2022/05/09 13:01:54;;;;;;;;;;;17.70;98.50;;;;;;4352216;32;20401;-74
2022/05/09 13:04:47;;;;;;;;;;;17.80;98.50;;;;;;4351223;32;43276;-75
2022/05/09 13:07:15;;;;;;;;;;;17.80;98.20;;;;;;4348865;32;44841;-74
2022/05/09 13:09:46;;;;;;;;;;;17.90;98.40;;;;;;4361755;32;45021;-74
2022/05/09 13:12:25;;;;;;;;;;;17.90;98.40;;;;;;4361868;32;42919;-74
2022/05/09 13:14:55;;;;;;;;;;;17.90;98.40;;;;;;4348296;32;43696;-74
2022/05/09 13:17:26;;;;;;;;;;;17.90;98.40;;;;;;4362053;32;44921;-74
2022/05/09 13:19:56;;;;;;;;;;;17.90;98.40;;;;;;4361866;32;44279;-74
2022/05/09 13:22:34;;;;;;;;;;;18.00;98.30;;;;;;4361654;32;43281;-75
2022/05/09 13:25:12;;;;;;;;;;;18.00;98.30;;;;;;4348533;32;44454;-74
2022/05/09 13:27:45;;;;;;;;;;;18.10;98.50;;;;;;4348760;32;42946;-74
2022/05/09 13:30:12;;;;;;;;;;;18.10;98.50;;;;;;4348667;32;44324;-75
2022/05/09 13:32:40;;;;;;;;;;;18.10;98.40;;;;;;4348335;32;43581;-74
2022/05/09 13:35:15;;;;;;;;;;;18.20;98.30;;;;;;4361420;32;43307;-74
2022/05/09 13:37:43;;;;;;;;;;;18.20;98.30;;;;;;4361625;32;42895;-74
2022/05/09 13:40:11;;;;;;;;;;;18.20;98.40;;;;;;4361176;32;42644;-74
2022/05/09 13:42:40;;;;;;;;;;;18.30;98.50;;;;;;4348060;32;44183;-74
2022/05/09 13:45:13;;;;;;;;;;;18.30;98.40;;;;;;4361337;32;43277;-74
2022/05/09 13:47:45;;;;;;;;;;;18.40;98.50;;;;;;4361397;32;43033;-74
2022/05/09 13:50:15;;;;;;;;;;;18.40;98.30;;;;;;4361202;32;42558;-74
2022/05/09 13:52:46;;;;;;;;;;;18.40;98.30;;;;;;4348237;32;43675;-75
2022/05/09 13:55:24;;;;;;;;;;;18.50;98.20;;;;;;4348190;32;45797;-74
2022/05/09 13:57:51;;;;;;;;;;;18.50;98.00;;;;;;4361246;32;43540;-74
2022/05/09 14:00:20;;;;;;;;;;;18.60;97.90;;;;;;4347955;32;43540;-74
2022/05/09 14:02:58;;;;;;;;;;;18.60;97.80;;;;;;4361782;32;20402;-75
2022/05/09 14:05:30;;;;;;;;;;;18.60;97.80;;;;;;4347974;32;42933;-75
2022/05/09 14:08:00;;;;;;;;;;;18.60;97.80;;;;;;4347617;32;43668;-75
2022/05/09 14:10:44;;;;;;;;;;;18.60;97.80;;;;;;4360779;32;42966;-75
2022/05/09 14:13:23;;;;;;;;;;;18.70;97.80;;;;;;4347947;32;43463;-75
2022/05/09 14:16:15;;;;;;;;;;;18.70;97.70;;;;;;4361171;32;43338;-76
2022/05/09 14:18:44;;;;;;;;;;;18.80;97.80;;;;;;4361308;32;43896;-75
2022/05/09 14:21:17;;;;;;;;;;;18.80;97.80;;;;;;4360753;32;42635;-75
2022/05/09 14:23:50;;;;;;;;;;;18.80;97.80;;;;;;4361135;32;43038;-75
2022/05/09 14:31:59;;;;;;;;;;;18.90;97.40;;;;;;4360485;32;42798;-74
2022/05/09 14:34:31;;;;;;;;;;;18.90;97.30;;;;;;4361317;32;20008;-76
2022/05/09 14:37:19;;;;;;;;;;;19.00;97.40;;;;;;4360588;32;42629;-75
2022/05/09 14:39:48;;;;;;;;;;;19.00;97.50;;;;;;4347190;32;43826;-75
2022/05/09 14:42:20;;;;;;;;;;;19.00;97.40;;;;;;4360310;32;43028;-75
2022/05/09 14:45:01;;;;;;;;;;;19.00;97.40;;;;;;4360849;32;42997;-75
2022/05/09 14:47:33;;;;;;;;;;;19.10;97.50;;;;;;4360149;32;43280;-75
2022/05/09 14:50:07;;;;;;;;;;;19.10;97.40;;;;;;4347932;32;43474;-75
2022/05/09 14:52:42;;;;;;;;;;;19.10;97.00;;;;;;4347199;32;43830;-75